createdAt,value
2022-07-25T00:01:57.343Z,84.71
2022-07-25T00:04:30.718Z,84.39
2022-07-25T00:07:06.592Z,83.79
2022-07-25T00:09:39.504Z,83.57
2022-07-25T00:12:12.197Z,82.89
2022-07-25T00:14:45.046Z,82.80
2022-07-25T00:17:17.733Z,82.91
2022-07-25T00:19:53.097Z,82.95
2022-07-25T00:22:25.760Z,82.29
2022-07-25T00:25:01.721Z,81.24
2022-07-25T00:27:34.635Z,80.49
2022-07-25T00:30:09.086Z,79.81
2022-07-25T00:32:41.841Z,79.80
2022-07-25T00:35:14.579Z,79.71
2022-07-25T00:37:52.877Z,79.58
2022-07-25T00:40:28.833Z,79.16
2022-07-25T00:43:01.809Z,80.17
2022-07-25T00:45:34.527Z,80.65
2022-07-25T00:48:11.535Z,80.57
2022-07-25T00:50:47.665Z,80.01
2022-07-25T00:53:20.585Z,80.16
2022-07-25T00:55:53.458Z,80.36
2022-07-25T00:58:26.155Z,79.69
2022-07-25T01:00:59.891Z,79.73
2022-07-25T01:03:32.620Z,79.04
2022-07-25T01:06:05.413Z,78.09
2022-07-25T01:08:38.367Z,78.02
2022-07-25T01:11:11.248Z,77.04
2022-07-25T01:13:44.202Z,76.74
2022-07-25T01:16:17.385Z,77.30
2022-07-25T01:18:50.302Z,76.46
2022-07-25T01:21:24.819Z,76.57
2022-07-25T01:23:57.422Z,76.81
2022-07-25T01:26:30.615Z,76.57
2022-07-25T01:29:03.778Z,76.35
2022-07-25T01:31:36.495Z,76.11
2022-07-25T01:34:11.199Z,75.70
2022-07-25T01:36:43.821Z,75.74
2022-07-25T01:39:16.552Z,75.07
2022-07-25T01:41:49.164Z,75.01
2022-07-25T01:44:21.733Z,74.87
2022-07-25T01:46:58.746Z,74.40
2022-07-25T01:49:31.454Z,74.52
2022-07-25T01:52:04.241Z,74.25
2022-07-25T01:54:41.759Z,74.22
2022-07-25T01:57:18.120Z,74.16
2022-07-25T01:59:51.015Z,74.02
2022-07-25T02:02:23.824Z,74.00
2022-07-25T02:04:58.218Z,73.58
2022-07-25T02:07:31.395Z,73.23
2022-07-25T02:10:06.426Z,73.22
2022-07-25T02:12:39.478Z,72.82
2022-07-25T02:15:15.278Z,72.04
2022-07-25T02:17:48.151Z,71.67
2022-07-25T02:20:27.409Z,71.47
2022-07-25T02:23:00.237Z,70.84
2022-07-25T02:25:36.515Z,70.97
2022-07-25T02:28:10.480Z,70.96
2022-07-25T02:30:44.255Z,70.93
2022-07-25T02:33:22.843Z,71.00
2022-07-25T02:35:56.100Z,71.23
2022-07-25T02:38:31.061Z,71.36
2022-07-25T02:41:03.916Z,71.23
2022-07-25T02:43:36.594Z,70.93
2022-07-25T02:46:09.491Z,70.49
2022-07-25T02:48:42.353Z,70.73
2022-07-25T02:51:15.508Z,70.05
2022-07-25T02:53:57.314Z,70.19
2022-07-25T02:56:33.323Z,70.33
2022-07-25T02:59:08.458Z,70.51
2022-07-25T03:01:44.932Z,70.30
2022-07-25T03:04:25.420Z,69.76
2022-07-25T03:07:04.808Z,69.88
2022-07-25T03:09:37.817Z,69.84
2022-07-25T03:12:10.996Z,69.08
2022-07-25T03:14:45.855Z,69.00
2022-07-25T03:17:18.842Z,68.93
2022-07-25T03:19:54.096Z,69.19
2022-07-25T03:22:27.278Z,69.09
2022-07-25T03:25:02.799Z,68.75
2022-07-25T03:27:39.437Z,69.05
2022-07-25T03:33:04.215Z,68.50
2022-07-25T03:35:52.876Z,68.10
2022-07-25T03:38:25.497Z,68.15
2022-07-25T03:40:58.148Z,68.24
2022-07-25T03:43:31.501Z,68.35
2022-07-25T03:46:04.191Z,68.36
2022-07-25T03:48:36.820Z,68.37
2022-07-25T03:51:09.476Z,68.96
2022-07-25T03:54:01.882Z,69.03
2022-07-25T03:56:43.891Z,69.30
2022-07-25T03:59:20.282Z,69.46
2022-07-25T04:01:52.932Z,69.51
2022-07-25T04:04:25.457Z,69.45
2022-07-25T04:06:58.074Z,69.89
2022-07-25T04:09:32.372Z,69.97
2022-07-25T04:12:06.487Z,70.11
2022-07-25T04:14:39.179Z,70.32
2022-07-25T04:17:11.972Z,70.50
2022-07-25T04:19:44.624Z,70.49
2022-07-25T04:22:17.735Z,70.54
2022-07-25T04:24:50.425Z,70.17
2022-07-25T04:27:23.073Z,70.46
2022-07-25T04:29:55.601Z,70.39
2022-07-25T04:32:28.153Z,70.27
2022-07-25T04:35:00.678Z,70.46
2022-07-25T04:37:33.266Z,70.35
2022-07-25T04:40:06.268Z,70.61
2022-07-25T04:42:38.874Z,70.28
2022-07-25T04:45:12.064Z,70.44
2022-07-25T04:47:44.755Z,69.96
2022-07-25T04:50:18.798Z,69.73
2022-07-25T04:52:54.437Z,69.76
2022-07-25T04:55:26.981Z,69.79
2022-07-25T04:58:00.565Z,69.84
2022-07-25T05:00:33.565Z,69.57
2022-07-25T05:03:06.188Z,69.48
2022-07-25T05:05:38.807Z,69.14
2022-07-25T05:08:11.324Z,69.26
2022-07-25T05:10:44.095Z,68.73
2022-07-25T05:13:16.713Z,68.53
2022-07-25T05:15:49.298Z,68.21
2022-07-25T05:18:25.962Z,68.25
2022-07-25T05:20:58.657Z,67.76
2022-07-25T05:23:31.368Z,67.16
2022-07-25T05:26:03.946Z,66.98
2022-07-25T05:28:36.528Z,66.71
2022-07-25T05:31:09.225Z,66.65
2022-07-25T05:33:42.632Z,66.51
2022-07-25T05:36:15.238Z,66.71
2022-07-25T05:38:47.837Z,66.36
2022-07-25T05:41:21.112Z,66.46
2022-07-25T05:43:53.690Z,66.59
2022-07-25T05:46:26.468Z,66.17
2022-07-25T05:48:59.428Z,66.15
2022-07-25T05:51:31.951Z,66.42
2022-07-25T05:54:04.985Z,66.35
2022-07-25T05:56:37.721Z,66.00
2022-07-25T05:59:10.358Z,66.51
2022-07-25T06:01:43.962Z,66.31
2022-07-25T06:04:16.616Z,66.62
2022-07-25T06:06:51.606Z,66.55
2022-07-25T06:09:24.208Z,66.14
2022-07-25T06:12:00.285Z,66.44
2022-07-25T06:14:33.798Z,66.24
2022-07-25T06:17:06.413Z,66.36
2022-07-25T06:19:38.958Z,67.52
2022-07-25T06:22:11.573Z,67.61
2022-07-25T06:24:44.102Z,67.45
2022-07-25T06:27:29.001Z,68.41
2022-07-25T06:30:19.237Z,68.37
2022-07-25T06:32:54.632Z,68.18
2022-07-25T06:35:34.759Z,67.91
2022-07-25T06:38:10.703Z,67.68
2022-07-25T06:40:43.389Z,67.42
2022-07-25T06:43:19.750Z,67.96
2022-07-25T06:45:54.445Z,67.81
2022-07-25T06:48:27.279Z,67.64
2022-07-25T06:51:00.255Z,67.90
2022-07-25T06:53:33.166Z,67.64
2022-07-25T06:56:08.057Z,67.98
2022-07-25T06:58:51.490Z,67.87
2022-07-25T07:01:26.360Z,68.59
2022-07-25T07:04:02.520Z,69.42
2022-07-25T07:06:36.825Z,69.16
2022-07-25T07:09:14.495Z,69.42
2022-07-25T07:11:49.916Z,69.18
2022-07-25T07:14:22.907Z,68.52
2022-07-25T07:16:55.713Z,68.43
2022-07-25T07:19:28.987Z,68.66
2022-07-25T07:22:01.816Z,68.03
2022-07-25T07:24:43.921Z,68.50
2022-07-25T07:27:19.198Z,67.49
2022-07-25T07:30:00.792Z,67.03
2022-07-25T07:32:37.253Z,66.75
2022-07-25T07:35:16.712Z,66.94
2022-07-25T07:37:49.511Z,67.38
2022-07-25T07:40:22.878Z,68.43
2022-07-25T07:42:57.385Z,69.88
2022-07-25T07:45:30.742Z,70.33
2022-07-25T07:48:04.309Z,70.19
2022-07-25T07:50:36.908Z,70.81
2022-07-25T07:53:09.523Z,70.16
2022-07-25T07:55:55.394Z,69.05
2022-07-25T07:58:28.145Z,67.76
2022-07-25T08:01:00.724Z,67.29
2022-07-25T08:03:33.648Z,69.00
2022-07-25T08:06:06.504Z,69.55
2022-07-25T08:08:39.586Z,69.01
2022-07-25T08:11:12.328Z,67.76
2022-07-25T08:13:44.936Z,67.75
2022-07-25T08:16:17.784Z,68.23
2022-07-25T08:18:50.635Z,69.26
2022-07-25T08:21:23.238Z,68.85
2022-07-25T08:23:55.983Z,69.32
2022-07-25T08:26:30.544Z,70.26
2022-07-25T08:29:21.984Z,69.87
2022-07-25T08:31:56.520Z,69.83
2022-07-25T08:34:29.124Z,70.65
2022-07-25T08:37:02.520Z,70.07
2022-07-25T08:39:35.124Z,70.09
2022-07-25T08:42:11.071Z,68.64
2022-07-25T08:44:49.389Z,67.58
2022-07-25T08:47:22.543Z,66.43
2022-07-25T08:50:00.865Z,67.19
2022-07-25T08:52:37.217Z,66.39
2022-07-25T08:55:14.679Z,65.92
2022-07-25T08:57:50.450Z,65.33
2022-07-25T09:00:26.389Z,65.51
2022-07-25T09:03:00.547Z,64.37
2022-07-25T09:05:34.582Z,65.06
2022-07-25T09:08:16.569Z,64.77
2022-07-25T09:10:52.460Z,64.16
2022-07-25T09:13:25.101Z,63.41
2022-07-25T09:15:59.905Z,63.88
2022-07-25T09:18:33.799Z,63.84
2022-07-25T09:21:13.648Z,63.63
2022-07-25T09:23:46.567Z,62.75
2022-07-25T09:26:22.714Z,60.94
2022-07-25T09:28:57.296Z,63.76
2022-07-25T09:31:33.329Z,64.85
2022-07-25T09:34:08.728Z,64.20
2022-07-25T09:37:04.657Z,65.24
2022-07-25T09:39:47.300Z,62.63
2022-07-25T09:42:33.024Z,63.38
2022-07-25T09:45:11.981Z,63.28
2022-07-25T09:47:56.626Z,62.08
2022-07-25T09:50:32.048Z,62.20
2022-07-25T09:53:04.757Z,62.72
2022-07-25T09:55:37.335Z,62.68
2022-07-25T09:58:09.952Z,62.62
2022-07-25T10:00:43.059Z,63.40
2022-07-25T10:03:26.475Z,62.84
2022-07-25T10:06:14.971Z,61.88
2022-07-25T10:08:49.071Z,60.85
2022-07-25T10:11:22.637Z,60.42
2022-07-25T10:13:56.649Z,58.89
2022-07-25T10:16:29.254Z,55.74
2022-07-25T10:19:01.997Z,55.23
2022-07-25T10:21:34.589Z,54.57
2022-07-25T10:24:09.986Z,53.82
2022-07-25T10:26:53.095Z,52.95
2022-07-25T10:29:33.902Z,52.91
2022-07-25T10:32:08.714Z,50.15
2022-07-25T10:34:52.997Z,49.26
2022-07-25T10:37:32.628Z,49.21
2022-07-25T10:40:06.208Z,51.43
2022-07-25T10:42:45.827Z,51.52
2022-07-25T10:45:18.555Z,51.43
2022-07-25T10:47:55.888Z,51.80
2022-07-25T10:50:53.605Z,50.87
2022-07-25T10:53:48.819Z,50.70
2022-07-25T10:56:23.381Z,49.70
2022-07-25T10:59:01.178Z,49.65
2022-07-25T11:01:38.192Z,48.73
2022-07-25T11:04:17.200Z,49.04
2022-07-25T11:06:50.311Z,48.86
2022-07-25T11:09:28.425Z,49.32
2022-07-25T11:12:01.469Z,49.54
2022-07-25T11:14:41.688Z,51.11
2022-07-25T11:17:25.331Z,50.70
2022-07-25T11:20:05.299Z,50.18
2022-07-25T11:22:38.061Z,48.95
2022-07-25T11:25:14.365Z,48.74
2022-07-25T11:27:52.279Z,49.91
2022-07-25T11:30:25.881Z,50.64
2022-07-25T11:33:03.828Z,50.64
2022-07-25T11:35:36.581Z,50.81
2022-07-25T11:38:14.177Z,50.93
2022-07-25T11:40:47.092Z,51.17
2022-07-25T11:43:24.370Z,51.67
2022-07-25T11:46:02.891Z,52.79
2022-07-25T11:48:39.058Z,51.86
2022-07-25T11:51:19.146Z,50.51
2022-07-25T11:53:52.100Z,50.14
2022-07-25T11:56:41.990Z,49.22
2022-07-25T11:59:15.662Z,50.20
2022-07-25T12:01:49.871Z,51.63
2022-07-25T12:04:22.889Z,51.61
2022-07-25T12:07:05.764Z,52.20
2022-07-25T12:09:38.506Z,52.24
2022-07-25T12:12:11.551Z,51.71
2022-07-25T12:14:46.823Z,51.42
2022-07-25T12:17:19.786Z,51.49
2022-07-25T12:19:52.378Z,50.82
2022-07-25T12:22:25.112Z,50.35
2022-07-25T12:24:57.878Z,48.27
2022-07-25T12:27:32.198Z,48.01
2022-07-25T12:30:06.456Z,48.62
2022-07-25T12:32:39.871Z,49.95
2022-07-25T12:35:14.027Z,51.09
2022-07-25T12:37:48.169Z,52.57
2022-07-25T12:40:21.250Z,53.44
2022-07-25T12:42:53.921Z,53.86
2022-07-25T12:45:26.971Z,54.32
2022-07-25T12:47:59.563Z,54.45
2022-07-25T12:50:32.238Z,55.49
2022-07-25T12:53:05.208Z,55.53
2022-07-25T12:55:38.018Z,54.95
2022-07-25T12:58:11.616Z,55.15
2022-07-25T13:00:44.834Z,53.92
2022-07-25T13:03:18.080Z,53.18
2022-07-25T13:05:50.676Z,51.74
2022-07-25T13:08:23.271Z,52.28
2022-07-25T13:10:55.830Z,50.28
2022-07-25T13:13:28.567Z,48.78
2022-07-25T13:16:02.004Z,48.42
2022-07-25T13:18:34.625Z,48.20
2022-07-25T13:21:07.336Z,48.66
2022-07-25T13:23:40.343Z,48.63
2022-07-25T13:26:13.295Z,48.33
2022-07-25T13:28:45.840Z,47.10
2022-07-25T13:31:20.398Z,47.86
2022-07-25T13:33:53.746Z,47.18
2022-07-25T13:36:28.749Z,47.15
2022-07-25T13:39:01.446Z,47.58
2022-07-25T13:41:34.027Z,47.49
2022-07-25T13:44:07.185Z,47.44
2022-07-25T13:46:40.121Z,47.52
2022-07-25T13:49:12.721Z,48.05
2022-07-25T13:51:45.691Z,48.68
2022-07-25T13:54:19.537Z,48.68
2022-07-25T13:56:52.128Z,47.58
2022-07-25T13:59:24.739Z,47.96
2022-07-25T14:01:57.383Z,47.19
2022-07-25T14:04:30.772Z,46.44
2022-07-25T14:07:03.407Z,46.00
2022-07-25T14:09:35.972Z,45.89
2022-07-25T14:12:08.651Z,45.26
2022-07-25T14:14:41.396Z,44.36
2022-07-25T14:17:14.281Z,43.62
2022-07-25T14:19:47.292Z,43.49
2022-07-25T14:22:20.078Z,43.52
2022-07-25T14:24:53.021Z,44.23
2022-07-25T14:27:25.687Z,44.35
2022-07-25T14:29:58.366Z,43.71
2022-07-25T14:32:31.105Z,43.68
2022-07-25T14:35:06.091Z,44.59
2022-07-25T14:37:38.903Z,45.18
2022-07-25T14:40:12.472Z,45.71
2022-07-25T14:42:46.667Z,45.47
2022-07-25T14:45:20.334Z,45.15
2022-07-25T14:47:54.029Z,44.99
2022-07-25T14:50:27.722Z,45.33
2022-07-25T14:53:00.504Z,44.78
2022-07-25T14:55:33.310Z,45.46
2022-07-25T14:58:05.891Z,44.60
2022-07-25T15:00:41.750Z,44.56
2022-07-25T15:03:15.579Z,44.33
2022-07-25T15:05:48.285Z,43.93
2022-07-25T15:08:21.071Z,43.95
2022-07-25T15:10:54.159Z,43.22
2022-07-25T15:13:31.825Z,43.14
2022-07-25T15:16:05.599Z,43.03
2022-07-25T15:18:52.536Z,43.24
2022-07-25T15:21:31.402Z,41.64
2022-07-25T15:24:04.799Z,41.48
2022-07-25T15:26:38.238Z,41.07
2022-07-25T15:29:16.374Z,41.38
2022-07-25T15:31:51.923Z,42.20
2022-07-25T15:34:29.138Z,41.87
2022-07-25T15:37:02.467Z,41.95
2022-07-25T15:39:38.781Z,42.64
2022-07-25T15:42:11.584Z,41.58
2022-07-25T15:44:44.171Z,41.10
2022-07-25T15:47:16.829Z,41.22
2022-07-25T15:49:49.621Z,41.66
2022-07-25T15:52:24.846Z,41.69
2022-07-25T15:54:57.608Z,41.66
2022-07-25T15:57:30.559Z,42.52
2022-07-25T16:00:06.230Z,41.59
2022-07-25T16:02:39.165Z,41.92
2022-07-25T16:05:11.769Z,41.81
2022-07-25T16:07:45.069Z,41.87
2022-07-25T16:10:18.285Z,42.63
2022-07-25T16:12:50.937Z,42.46
2022-07-25T16:15:24.210Z,42.40
2022-07-25T16:18:02.368Z,42.60
2022-07-25T16:20:39.060Z,42.92
2022-07-25T16:23:12.148Z,43.44
2022-07-25T16:25:47.922Z,44.17
2022-07-25T16:28:20.792Z,44.42
2022-07-25T16:30:58.163Z,44.56
2022-07-25T16:33:36.249Z,44.85
2022-07-25T16:36:11.061Z,44.98
2022-07-25T16:38:45.441Z,44.72
2022-07-25T16:41:18.405Z,44.10
2022-07-25T16:43:52.362Z,43.32
2022-07-25T16:46:28.483Z,43.42
2022-07-25T16:49:05.057Z,43.90
2022-07-25T16:51:39.186Z,44.85
2022-07-25T16:54:12.583Z,44.74
2022-07-25T16:56:46.638Z,44.87
2022-07-25T16:59:22.374Z,44.83
2022-07-25T17:01:55.256Z,43.61
2022-07-25T17:04:28.487Z,42.50
2022-07-25T17:07:01.444Z,42.04
2022-07-25T17:09:34.103Z,42.59
2022-07-25T17:12:07.522Z,42.58
2022-07-25T17:14:40.451Z,43.37
2022-07-25T17:17:13.511Z,42.63
2022-07-25T17:19:46.458Z,42.86
2022-07-25T17:22:20.228Z,43.31
2022-07-25T17:24:53.114Z,43.12
2022-07-25T17:27:26.292Z,43.93
2022-07-25T17:29:59.068Z,44.64
2022-07-25T17:32:31.874Z,44.91
2022-07-25T17:35:04.901Z,44.78
2022-07-25T17:37:37.548Z,45.11
2022-07-25T17:40:10.892Z,45.36
2022-07-25T17:42:45.470Z,45.36
2022-07-25T17:45:18.302Z,45.79
2022-07-25T17:47:52.525Z,46.24
2022-07-25T17:50:29.364Z,46.44
2022-07-25T17:53:02.567Z,46.60
2022-07-25T17:55:38.987Z,46.80
2022-07-25T17:58:12.104Z,46.83
2022-07-25T18:00:46.911Z,46.98
2022-07-25T18:03:20.195Z,47.32
2022-07-25T18:05:53.672Z,47.92
2022-07-25T18:08:30.437Z,48.12
2022-07-25T18:11:03.702Z,48.62
2022-07-25T18:13:36.609Z,48.94
2022-07-25T18:16:10.311Z,49.10
2022-07-25T18:18:43.196Z,49.95
2022-07-25T18:21:15.890Z,49.97
2022-07-25T18:23:48.589Z,50.56
2022-07-25T18:26:22.013Z,50.97
2022-07-25T18:28:54.941Z,51.34
2022-07-25T18:31:27.642Z,51.69
2022-07-25T18:34:00.641Z,51.80
2022-07-25T18:36:33.798Z,52.44
2022-07-25T18:39:06.661Z,52.62
2022-07-25T18:41:39.347Z,53.00
2022-07-25T18:44:11.986Z,53.64
2022-07-25T18:46:46.045Z,54.03
2022-07-25T18:49:18.789Z,53.50
2022-07-25T18:51:51.511Z,53.41
2022-07-25T18:54:24.156Z,53.62
2022-07-25T18:56:56.721Z,53.76
2022-07-25T18:59:29.279Z,53.59
2022-07-25T19:02:03.104Z,54.01
2022-07-25T19:04:36.112Z,54.28
2022-07-25T19:07:09.569Z,54.62
2022-07-25T19:09:42.339Z,54.85
2022-07-25T19:12:15.373Z,55.55
2022-07-25T19:14:48.537Z,56.05
2022-07-25T19:17:21.637Z,56.46
2022-07-25T19:19:54.411Z,56.94
2022-07-25T19:22:30.824Z,57.71
2022-07-25T19:25:07.902Z,58.03
2022-07-25T19:28:20.463Z,58.57
2022-07-25T19:31:09.416Z,59.18
2022-07-25T19:48:16.815Z,63.80
2022-07-25T19:55:09.298Z,65.19
2022-07-25T20:01:21.213Z,65.97
2022-07-25T20:03:54.337Z,66.39
2022-07-25T20:06:27.487Z,66.89
2022-07-25T20:09:00.528Z,67.08
2022-07-25T20:11:33.274Z,67.44
2022-07-25T20:14:06.350Z,67.49
2022-07-25T20:16:44.195Z,67.71
2022-07-25T20:19:25.701Z,67.96
2022-07-25T20:22:01.946Z,67.88
2022-07-25T20:24:35.472Z,67.97
2022-07-25T20:27:10.164Z,67.96
2022-07-25T20:29:49.088Z,68.14
2022-07-25T20:32:24.311Z,68.33
2022-07-25T20:34:58.898Z,68.62
2022-07-25T20:37:35.857Z,68.81
2022-07-25T20:40:10.765Z,69.09
2022-07-25T20:42:49.021Z,69.30
2022-07-25T20:45:28.923Z,69.47
2022-07-25T20:48:03.199Z,69.63
2022-07-25T20:50:40.780Z,70.01
2022-07-25T20:53:14.984Z,69.98
2022-07-25T20:55:49.798Z,70.14
2022-07-25T20:58:24.499Z,70.46
2022-07-25T21:01:17.941Z,70.55
2022-07-25T21:03:53.946Z,70.67
2022-07-25T21:06:29.872Z,71.41
2022-07-25T21:09:09.134Z,71.71
2022-07-25T21:11:47.831Z,72.33
2022-07-25T21:14:33.591Z,72.50
2022-07-25T21:17:12.887Z,73.16
2022-07-25T21:19:50.040Z,73.56
2022-07-25T21:22:23.698Z,73.86
2022-07-25T21:25:05.316Z,74.76
2022-07-25T21:27:49.069Z,75.08
2022-07-25T21:30:23.832Z,75.59
2022-07-25T21:32:59.293Z,76.02
2022-07-25T21:35:50.417Z,76.49
2022-07-25T21:38:33.455Z,77.43
2022-07-25T21:41:14.423Z,77.71
2022-07-25T21:43:52.989Z,78.28
2022-07-25T21:46:28.232Z,78.70
2022-07-25T21:49:41.824Z,79.47
2022-07-25T21:52:19.225Z,79.69
2022-07-25T21:55:05.498Z,80.21
2022-07-25T21:57:46.855Z,80.86
2022-07-25T22:00:26.717Z,81.21
2022-07-25T22:03:01.923Z,81.92
2022-07-25T22:05:42.496Z,82.07
2022-07-25T22:08:17.930Z,82.30
2022-07-25T22:10:57.925Z,82.47
2022-07-25T22:13:33.063Z,83.10
2022-07-25T22:16:09.472Z,83.50
2022-07-25T22:18:49.817Z,84.08
2022-07-25T22:21:31.856Z,84.57
2022-07-25T22:24:10.347Z,84.65
2022-07-25T22:26:54.853Z,85.15
2022-07-25T22:32:25.684Z,85.76
2022-07-25T22:35:02.035Z,85.89
2022-07-25T22:37:52.922Z,85.93
2022-07-25T22:40:34.135Z,86.01
2022-07-25T22:43:11.914Z,86.58
2022-07-25T22:45:45.943Z,86.84
2022-07-25T22:48:20.532Z,86.68
2022-07-25T22:51:05.571Z,86.89
2022-07-25T22:53:43.686Z,87.07
2022-07-25T22:56:23.857Z,87.22
2022-07-25T22:59:01.084Z,87.50
2022-07-25T23:01:35.389Z,87.58
2022-07-25T23:04:25.868Z,87.88
2022-07-25T23:07:01.361Z,87.92
2022-07-25T23:09:47.643Z,87.96
2022-07-25T23:12:25.295Z,88.27
2022-07-25T23:15:05.903Z,88.41
2022-07-25T23:23:29.568Z,88.55
2022-07-25T23:26:03.297Z,89.03
2022-07-25T23:28:58.492Z,88.75
2022-07-25T23:31:37.869Z,89.36
2022-07-25T23:34:14.243Z,89.02
2022-07-25T23:36:49.973Z,89.26
2022-07-25T23:42:20.273Z,89.85
2022-07-25T23:45:07.288Z,90.01
2022-07-25T23:47:44.191Z,89.72
2022-07-25T23:50:23.900Z,90.31
2022-07-25T23:53:00.726Z,90.27
2022-07-25T23:55:37.741Z,90.03
2022-07-25T23:58:12.413Z,90.29
